createdAt,value
2023-03-29T00:01:35.043Z,98160.81
2023-03-29T00:04:07.307Z,98167.84
2023-03-29T00:06:35.812Z,98159.19
2023-03-29T00:09:05.805Z,98168.78
2023-03-29T00:11:35.511Z,98164.44
2023-03-29T00:14:06.710Z,98153.13
2023-03-29T00:16:35.000Z,98157.53
2023-03-29T00:19:03.329Z,98160.22
2023-03-29T00:21:31.933Z,98154.97
2023-03-29T00:24:00.432Z,98162.84
2023-03-29T00:26:28.762Z,98158.44
2023-03-29T00:29:01.045Z,98161.06
2023-03-29T00:31:29.444Z,98165.47
2023-03-29T00:33:57.862Z,98163.63
2023-03-29T00:36:26.605Z,98165.31
2023-03-29T00:38:57.187Z,98167.84
2023-03-29T00:41:28.525Z,98173.00
2023-03-29T00:44:01.001Z,98167.72
2023-03-29T00:46:31.595Z,98172.88
2023-03-29T00:49:07.504Z,98175.41
2023-03-29T00:51:38.595Z,98173.63
2023-03-29T00:54:14.758Z,98177.94
2023-03-29T00:56:49.709Z,98181.41
2023-03-29T00:59:23.815Z,98191.84
2023-03-29T01:01:55.302Z,98196.13
2023-03-29T01:04:29.439Z,98189.09
2023-03-29T01:07:04.683Z,98189.00
2023-03-29T01:09:37.527Z,98193.31
2023-03-29T01:12:13.285Z,98187.09
2023-03-29T01:14:52.946Z,98173.13
2023-03-29T01:17:22.094Z,98171.41
2023-03-29T01:19:59.465Z,98174.16
2023-03-29T01:22:41.207Z,98161.97
2023-03-29T01:25:17.570Z,98162.91
2023-03-29T01:28:02.463Z,98163.72
2023-03-29T01:30:35.349Z,98153.22
2023-03-29T01:33:09.943Z,98157.66
2023-03-29T01:35:44.825Z,98153.22
2023-03-29T01:38:18.688Z,98152.50
2023-03-29T01:40:46.963Z,98148.06
2023-03-29T01:43:26.037Z,98147.25
2023-03-29T01:46:03.450Z,98136.72
2023-03-29T01:48:37.891Z,98133.13
2023-03-29T01:51:11.272Z,98140.06
2023-03-29T01:53:44.470Z,98145.97
2023-03-29T01:56:17.752Z,98141.56
2023-03-29T01:58:52.685Z,98138.84
2023-03-29T02:01:27.013Z,98127.34
2023-03-29T02:04:01.780Z,98115.88
2023-03-29T02:06:33.627Z,98103.47
2023-03-29T02:09:04.820Z,98106.94
2023-03-29T02:11:33.181Z,98092.97
2023-03-29T02:14:02.964Z,98090.34
2023-03-29T02:16:36.946Z,98092.97
2023-03-29T02:19:05.461Z,98095.81
2023-03-29T02:21:40.956Z,98097.47
2023-03-29T02:24:18.106Z,98093.16
2023-03-29T02:26:46.503Z,98093.06
2023-03-29T02:29:19.304Z,98085.88
2023-03-29T02:31:55.151Z,98084.00
2023-03-29T02:34:30.643Z,98070.66
2023-03-29T02:37:03.247Z,98060.03
2023-03-29T02:39:33.886Z,98061.69
2023-03-29T02:42:04.377Z,98064.44
2023-03-29T02:44:38.703Z,98065.38
2023-03-29T02:47:15.189Z,98069.69
2023-03-29T02:49:43.667Z,98061.81
2023-03-29T02:52:16.650Z,98062.66
2023-03-29T02:54:46.994Z,98063.50
2023-03-29T02:57:15.370Z,98059.91
2023-03-29T02:59:45.250Z,98058.47
2023-03-29T03:02:14.046Z,98059.28
2023-03-29T03:04:43.284Z,98058.47
2023-03-29T03:07:11.980Z,98059.28
2023-03-29T03:09:40.376Z,98057.59
2023-03-29T03:12:10.834Z,98050.47
2023-03-29T03:14:39.509Z,98047.09
2023-03-29T03:17:09.340Z,98051.50
2023-03-29T03:19:38.242Z,98046.22
2023-03-29T03:22:07.762Z,98054.13
2023-03-29T03:24:36.106Z,98050.88
2023-03-29T03:27:04.917Z,98050.88
2023-03-29T03:29:33.204Z,98050.88
2023-03-29T03:32:02.161Z,98048.38
2023-03-29T03:34:31.868Z,98050.25
2023-03-29T03:37:01.824Z,98045.94
2023-03-29T03:39:30.619Z,98042.69
2023-03-29T03:41:58.894Z,98044.50
2023-03-29T03:44:30.106Z,98034.28
2023-03-29T03:46:58.366Z,98039.44
2023-03-29T03:49:26.618Z,98027.22
2023-03-29T03:51:56.503Z,98043.94
2023-03-29T03:54:28.732Z,98027.53
2023-03-29T03:56:57.456Z,98026.16
2023-03-29T03:59:26.607Z,98021.66
2023-03-29T04:01:55.032Z,98010.19
2023-03-29T04:04:24.152Z,98005.03
2023-03-29T04:06:52.878Z,98001.47
2023-03-29T04:09:23.425Z,98010.19
2023-03-29T04:11:53.177Z,98016.31
2023-03-29T04:14:21.621Z,98013.69
2023-03-29T04:16:50.066Z,98010.94
2023-03-29T04:19:18.490Z,98011.75
2023-03-29T04:21:49.168Z,98012.41
2023-03-29T04:24:18.184Z,98010.72
2023-03-29T04:26:49.017Z,98008.81
2023-03-29T04:29:17.350Z,97998.09
2023-03-29T04:31:45.722Z,97993.47
2023-03-29T04:34:14.195Z,97995.97
2023-03-29T04:36:43.601Z,97997.44
2023-03-29T04:39:15.083Z,97986.69
2023-03-29T04:41:43.390Z,97975.34
2023-03-29T04:44:16.193Z,97967.44
2023-03-29T04:46:44.596Z,97954.41
2023-03-29T04:49:12.879Z,97965.66
2023-03-29T04:51:41.180Z,97955.25
2023-03-29T04:54:09.426Z,97953.47
2023-03-29T04:56:37.995Z,97957.03
2023-03-29T04:59:14.920Z,97965.03
2023-03-29T05:01:45.815Z,97955.59
2023-03-29T05:04:15.076Z,97952.25
2023-03-29T05:06:43.501Z,97955.09
2023-03-29T05:09:11.845Z,97951.50
2023-03-29T05:11:40.193Z,97951.50
2023-03-29T05:14:09.331Z,97960.13
2023-03-29T05:16:38.079Z,97960.03
2023-03-29T05:19:09.169Z,97969.38
2023-03-29T05:21:37.618Z,97969.03
2023-03-29T05:24:07.099Z,97968.81
2023-03-29T05:26:35.525Z,97969.63
2023-03-29T05:29:04.491Z,97972.91
2023-03-29T05:31:33.127Z,97969.19
2023-03-29T05:34:01.465Z,97970.91
2023-03-29T05:36:31.219Z,97959.31
2023-03-29T05:38:59.803Z,97966.13
2023-03-29T05:41:28.108Z,97966.03
2023-03-29T05:43:56.781Z,97964.13
2023-03-29T05:46:25.190Z,97978.03
2023-03-29T05:48:53.695Z,97973.59
2023-03-29T05:51:24.362Z,97972.66
2023-03-29T05:53:54.235Z,97978.63
2023-03-29T05:56:22.574Z,97972.44
2023-03-29T05:58:52.331Z,97964.31
2023-03-29T06:01:22.587Z,97960.63
2023-03-29T06:03:51.202Z,97953.34
2023-03-29T06:06:21.400Z,97952.28
2023-03-29T06:08:50.660Z,97948.56
2023-03-29T06:11:20.344Z,97945.84
2023-03-29T06:13:48.741Z,97943.94
2023-03-29T06:16:17.063Z,97949.19
2023-03-29T06:18:45.423Z,97941.91
2023-03-29T06:21:13.717Z,97938.34
2023-03-29T06:23:42.491Z,97942.53
2023-03-29T06:26:12.862Z,97945.06
2023-03-29T06:28:42.570Z,97942.31
2023-03-29T06:31:11.043Z,97941.13
2023-03-29T06:33:40.208Z,97935.75
2023-03-29T06:36:09.742Z,97935.50
2023-03-29T06:38:38.134Z,97935.41
2023-03-29T06:41:08.990Z,97942.25
2023-03-29T06:43:37.654Z,97940.09
2023-03-29T06:46:11.913Z,97940.94
2023-03-29T06:48:40.985Z,97941.69
2023-03-29T06:51:11.319Z,97946.84
2023-03-29T06:53:39.620Z,97953.66
2023-03-29T06:56:09.831Z,97953.44
2023-03-29T06:58:38.389Z,97953.31
2023-03-29T07:01:08.509Z,97951.41
2023-03-29T07:03:36.966Z,97954.63
2023-03-29T07:06:10.079Z,97951.88
2023-03-29T07:08:43.401Z,97951.56
2023-03-29T07:11:14.184Z,97947.94
2023-03-29T07:13:43.618Z,97942.56
2023-03-29T07:16:14.692Z,97946.44
2023-03-29T07:18:46.960Z,97937.44
2023-03-29T07:21:15.341Z,97945.13
2023-03-29T07:23:43.992Z,97943.09
2023-03-29T07:26:12.285Z,97945.41
2023-03-29T07:28:40.752Z,97953.78
2023-03-29T07:31:15.562Z,97958.91
2023-03-29T07:33:44.243Z,97954.16
2023-03-29T07:36:12.866Z,97953.91
2023-03-29T07:38:41.815Z,97957.13
2023-03-29T07:41:10.211Z,97949.97
2023-03-29T07:43:38.502Z,97952.38
2023-03-29T07:46:10.072Z,97949.25
2023-03-29T07:48:39.859Z,97954.41
2023-03-29T07:51:08.990Z,97957.66
2023-03-29T07:53:37.396Z,97955.97
2023-03-29T07:56:06.561Z,97959.31
2023-03-29T07:58:35.191Z,97954.06
2023-03-29T08:01:04.132Z,97956.69
2023-03-29T08:03:32.660Z,97949.75
2023-03-29T08:06:05.116Z,97950.94
2023-03-29T08:08:33.407Z,97953.78
2023-03-29T08:11:02.014Z,97956.44
2023-03-29T08:13:30.716Z,97954.75
2023-03-29T08:16:00.800Z,97946.84
2023-03-29T08:18:29.119Z,97953.78
2023-03-29T08:20:58.129Z,97950.22
2023-03-29T08:23:32.824Z,97954.41
2023-03-29T08:26:01.332Z,97950.81
2023-03-29T08:28:29.630Z,97943.41
2023-03-29T08:30:57.970Z,97953.59
2023-03-29T08:33:26.572Z,97954.94
2023-03-29T08:35:55.610Z,97955.41
2023-03-29T08:38:23.937Z,97956.63
2023-03-29T08:40:53.759Z,97967.78
2023-03-29T08:43:53.924Z,97955.03
2023-03-29T08:46:35.494Z,97959.94
2023-03-29T08:49:06.925Z,97950.75
2023-03-29T08:51:39.762Z,97954.69
2023-03-29T08:54:13.314Z,97946.41
2023-03-29T08:56:46.788Z,97948.44
2023-03-29T08:59:22.226Z,97954.06
2023-03-29T09:01:55.340Z,97942.19
2023-03-29T09:04:28.832Z,97939.84
2023-03-29T09:06:57.916Z,97949.22
2023-03-29T09:09:33.657Z,97944.28
2023-03-29T09:12:19.153Z,97946.28
2023-03-29T09:15:06.732Z,97936.94
2023-03-29T09:17:49.796Z,97941.72
2023-03-29T09:20:29.175Z,97942.03
2023-03-29T09:23:15.538Z,97940.66
2023-03-29T09:25:54.279Z,97944.63
2023-03-29T09:28:34.745Z,97924.91
2023-03-29T09:31:07.893Z,97921.63
2023-03-29T09:33:45.045Z,97927.25
2023-03-29T09:36:18.973Z,97929.63
2023-03-29T09:38:54.196Z,97933.19
2023-03-29T09:41:29.991Z,97925.75
2023-03-29T09:44:07.341Z,97934.97
2023-03-29T09:46:42.467Z,97927.84
2023-03-29T09:49:17.672Z,97921.09
2023-03-29T09:51:49.547Z,97916.09
2023-03-29T09:54:20.972Z,97918.09
2023-03-29T09:56:49.461Z,97914.66
2023-03-29T09:59:19.569Z,97902.72
2023-03-29T10:01:48.378Z,97905.66
2023-03-29T10:04:17.741Z,97904.03
2023-03-29T10:06:49.392Z,97898.91
2023-03-29T10:09:21.949Z,97907.72
2023-03-29T10:11:54.303Z,97897.31
2023-03-29T10:14:36.145Z,97886.75
2023-03-29T10:17:12.449Z,97886.75
2023-03-29T10:19:51.058Z,97883.13
2023-03-29T10:22:23.979Z,97877.59
2023-03-29T10:24:53.834Z,97874.28
2023-03-29T10:27:25.814Z,97865.22
2023-03-29T10:29:56.784Z,97867.44
2023-03-29T10:32:33.483Z,97854.72
2023-03-29T10:35:09.726Z,97859.56
2023-03-29T10:37:42.671Z,97865.41
2023-03-29T10:40:23.179Z,97858.09
2023-03-29T10:42:53.911Z,97857.94
2023-03-29T10:45:30.566Z,97857.19
2023-03-29T10:47:59.991Z,97858.97
2023-03-29T10:50:35.620Z,97854.06
2023-03-29T10:53:15.296Z,97866.03
2023-03-29T10:55:55.601Z,97854.47
2023-03-29T10:58:39.980Z,97848.03
2023-03-29T11:01:19.525Z,97842.72
2023-03-29T11:04:08.437Z,97851.13
2023-03-29T11:06:43.159Z,97850.97
2023-03-29T11:09:21.703Z,97846.47
2023-03-29T11:12:15.539Z,97843.81
2023-03-29T11:14:57.036Z,97841.72
2023-03-29T11:17:43.432Z,97840.88
2023-03-29T11:20:33.324Z,97844.06
2023-03-29T11:23:16.453Z,97843.22
2023-03-29T11:25:58.205Z,97838.22
2023-03-29T11:28:44.998Z,97833.16
2023-03-29T11:31:26.144Z,97834.53
2023-03-29T11:34:16.512Z,97834.53
2023-03-29T11:36:52.754Z,97840.22
2023-03-29T11:39:32.258Z,97838.25
2023-03-29T11:42:09.325Z,97835.13
2023-03-29T11:44:39.713Z,97826.88
2023-03-29T11:47:12.361Z,97827.28
2023-03-29T11:49:46.259Z,97828.47
2023-03-29T11:52:19.112Z,97830.53
2023-03-29T11:54:54.698Z,97829.78
2023-03-29T11:57:29.061Z,97819.69
2023-03-29T12:00:05.446Z,97817.94
2023-03-29T12:02:39.476Z,97817.31
2023-03-29T12:05:19.396Z,97816.88
2023-03-29T12:07:52.341Z,97813.91
2023-03-29T12:10:23.626Z,97806.31
2023-03-29T12:12:59.745Z,97803.34
2023-03-29T12:15:32.147Z,97804.00
2023-03-29T12:18:08.745Z,97801.88
2023-03-29T12:20:45.723Z,97797.91
2023-03-29T12:23:16.345Z,97802.94
2023-03-29T12:25:55.221Z,97792.69
2023-03-29T12:28:59.765Z,97786.03
2023-03-29T12:31:36.830Z,97778.47
2023-03-29T12:34:29.684Z,97779.97
2023-03-29T12:37:18.953Z,97784.00
2023-03-29T12:39:47.447Z,97774.25
2023-03-29T12:42:18.880Z,97777.94
2023-03-29T12:44:51.002Z,97768.16
2023-03-29T12:47:23.491Z,97768.06
2023-03-29T12:49:59.598Z,97763.28
2023-03-29T12:52:34.275Z,97750.19
2023-03-29T12:55:06.706Z,97758.19
2023-03-29T12:57:42.643Z,97762.69
2023-03-29T13:00:22.493Z,97759.22
2023-03-29T13:03:03.301Z,97756.06
2023-03-29T13:05:36.338Z,97757.94
2023-03-29T13:08:24.544Z,97759.25
2023-03-29T13:10:56.260Z,97748.13
2023-03-29T13:13:29.388Z,97752.81
2023-03-29T13:16:13.369Z,97742.53
2023-03-29T13:18:58.064Z,97739.38
2023-03-29T13:21:39.220Z,97743.03
2023-03-29T13:24:40.331Z,97738.91
2023-03-29T13:27:18.562Z,97733.53
2023-03-29T13:30:16.713Z,97723.72
2023-03-29T13:32:53.820Z,97720.38
2023-03-29T13:35:35.370Z,97732.88
2023-03-29T13:38:16.407Z,97737.69
2023-03-29T13:41:02.324Z,97730.88
2023-03-29T13:43:56.635Z,97738.22
2023-03-29T13:46:37.627Z,97728.19
2023-03-29T13:49:16.957Z,97729.53
2023-03-29T13:52:04.138Z,97728.53
2023-03-29T13:54:38.576Z,97723.88
2023-03-29T13:57:17.744Z,97715.66
2023-03-29T13:59:58.329Z,97706.69
2023-03-29T14:02:47.246Z,97696.81
2023-03-29T14:05:20.876Z,97704.50
2023-03-29T14:07:52.859Z,97708.00
2023-03-29T14:10:28.171Z,97711.34
2023-03-29T14:13:04.489Z,97700.66
2023-03-29T14:15:44.959Z,97710.84
2023-03-29T14:18:16.908Z,97714.31
2023-03-29T14:20:49.112Z,97703.16
2023-03-29T14:23:22.349Z,97704.00
2023-03-29T14:25:52.379Z,97695.28
2023-03-29T14:28:24.877Z,97696.00
2023-03-29T14:30:53.721Z,97690.66
2023-03-29T14:33:28.320Z,97690.13
2023-03-29T14:35:58.609Z,97696.66
2023-03-29T14:38:28.127Z,97694.47
2023-03-29T14:41:00.296Z,97699.16
2023-03-29T14:43:32.141Z,97700.97
2023-03-29T14:46:04.437Z,97706.81
2023-03-29T14:48:33.357Z,97706.66
2023-03-29T14:51:02.744Z,97698.81
2023-03-29T14:53:34.328Z,97713.00
2023-03-29T14:56:03.432Z,97710.31
2023-03-29T14:58:36.829Z,97710.50
2023-03-29T15:01:16.154Z,97708.16
2023-03-29T15:03:46.122Z,97707.00
2023-03-29T15:06:15.828Z,97696.47
2023-03-29T15:08:57.926Z,97702.00
2023-03-29T15:11:33.965Z,97706.69
2023-03-29T15:14:08.775Z,97704.53
2023-03-29T15:16:40.593Z,97698.53
2023-03-29T15:19:13.049Z,97704.88
2023-03-29T15:21:43.145Z,97704.88
2023-03-29T15:24:23.628Z,97695.53
2023-03-29T15:27:04.153Z,97689.38
2023-03-29T15:29:41.865Z,97691.38
2023-03-29T15:32:20.410Z,97679.88
2023-03-29T15:34:59.070Z,97681.88
2023-03-29T15:37:27.668Z,97684.53
2023-03-29T15:39:56.393Z,97680.38
2023-03-29T15:42:25.094Z,97676.22
2023-03-29T15:44:57.362Z,97678.72
2023-03-29T15:47:26.389Z,97675.06
2023-03-29T15:49:54.795Z,97675.22
2023-03-29T15:52:23.345Z,97669.56
2023-03-29T15:54:51.728Z,97665.88
2023-03-29T15:57:20.515Z,97672.06
2023-03-29T15:59:48.852Z,97664.69
2023-03-29T16:02:21.817Z,97662.88
2023-03-29T16:04:50.184Z,97663.53
2023-03-29T16:07:20.897Z,97658.03
2023-03-29T16:09:49.269Z,97650.84
2023-03-29T16:12:17.609Z,97650.69
2023-03-29T16:14:46.365Z,97655.03
2023-03-29T16:17:15.901Z,97654.88
2023-03-29T16:19:45.584Z,97654.69
2023-03-29T16:22:13.992Z,97655.50
2023-03-29T16:24:43.805Z,97652.84
2023-03-29T16:27:12.166Z,97651.00
2023-03-29T16:29:40.477Z,97644.66
2023-03-29T16:32:08.875Z,97640.19
2023-03-29T16:34:38.093Z,97641.84
2023-03-29T16:37:08.141Z,97639.16
2023-03-29T16:39:37.255Z,97646.16
2023-03-29T16:42:06.197Z,97640.19
2023-03-29T16:44:34.602Z,97639.50
2023-03-29T16:47:03.013Z,97638.88
2023-03-29T16:49:33.374Z,97638.19
2023-03-29T16:52:01.809Z,97639.22
2023-03-29T16:54:32.638Z,97650.22
2023-03-29T16:57:01.020Z,97648.53
2023-03-29T16:59:34.896Z,97646.19
2023-03-29T17:02:03.260Z,97642.91
2023-03-29T17:04:31.839Z,97638.72
2023-03-29T17:07:00.412Z,97629.06
2023-03-29T17:09:30.168Z,97631.22
2023-03-29T17:11:58.543Z,97633.25
2023-03-29T17:14:26.863Z,97636.09
2023-03-29T17:16:55.398Z,97636.41
2023-03-29T17:19:24.129Z,97644.59
2023-03-29T17:21:52.478Z,97644.75
2023-03-29T17:24:20.984Z,97637.91
2023-03-29T17:26:50.742Z,97642.59
2023-03-29T17:29:19.235Z,97639.25
2023-03-29T17:31:48.189Z,97642.09
2023-03-29T17:34:17.631Z,97648.78
2023-03-29T17:36:46.817Z,97647.28
2023-03-29T17:39:15.848Z,97645.13
2023-03-29T17:41:44.201Z,97647.13
2023-03-29T17:44:13.973Z,97649.28
2023-03-29T17:46:42.329Z,97652.94
2023-03-29T17:49:10.859Z,97655.09
2023-03-29T17:51:39.256Z,97651.97
2023-03-29T17:54:07.665Z,97661.09
2023-03-29T17:56:36.033Z,97661.59
2023-03-29T17:59:04.628Z,97658.63
2023-03-29T18:01:36.351Z,97659.94
2023-03-29T18:04:06.385Z,97663.03
2023-03-29T18:06:34.761Z,97659.91
2023-03-29T18:09:03.311Z,97662.91
2023-03-29T18:11:32.407Z,97667.72
2023-03-29T18:14:01.738Z,97670.88
2023-03-29T18:16:30.173Z,97665.06
2023-03-29T18:18:59.952Z,97661.72
2023-03-29T18:21:28.477Z,97662.88
2023-03-29T18:23:57.195Z,97660.56
2023-03-29T18:26:26.048Z,97661.03
2023-03-29T18:28:54.548Z,97666.69
2023-03-29T18:31:23.000Z,97656.38
2023-03-29T18:33:51.429Z,97664.69
2023-03-29T18:36:21.865Z,97659.53
2023-03-29T18:38:50.504Z,97660.34
2023-03-29T18:41:18.911Z,97664.16
2023-03-29T18:43:47.758Z,97660.81
2023-03-29T18:46:16.332Z,97652.19
2023-03-29T18:48:44.724Z,97661.13
2023-03-29T18:51:13.712Z,97672.78
2023-03-29T18:53:44.416Z,97657.63
2023-03-29T18:56:12.877Z,97663.97
2023-03-29T19:01:10.739Z,97677.22
2023-03-29T19:03:39.240Z,97666.09
2023-03-29T19:06:08.408Z,97668.22
2023-03-29T19:08:39.673Z,97668.56
2023-03-29T19:11:14.204Z,97675.19
2023-03-29T19:13:43.152Z,97672.69
2023-03-29T19:16:12.208Z,97668.50
2023-03-29T19:18:40.937Z,97673.19
2023-03-29T19:21:09.218Z,97674.31
2023-03-29T19:23:37.604Z,97674.47
2023-03-29T19:26:08.791Z,97675.63
2023-03-29T19:28:37.192Z,97668.66
2023-03-29T19:31:06.006Z,97678.59
2023-03-29T19:33:34.399Z,97674.28
2023-03-29T19:36:02.970Z,97676.09
2023-03-29T19:38:31.594Z,97652.19
2023-03-29T19:40:59.869Z,97657.50
2023-03-29T19:43:30.172Z,97662.97
2023-03-29T19:46:05.976Z,97662.13
2023-03-29T19:48:34.523Z,97666.78
2023-03-29T19:51:03.815Z,97656.16
2023-03-29T19:53:32.859Z,97666.09
2023-03-29T19:56:02.152Z,97660.94
2023-03-29T19:58:32.093Z,97663.72
2023-03-29T20:01:00.527Z,97666.72
2023-03-29T20:03:29.269Z,97670.38
2023-03-29T20:05:58.449Z,97665.06
2023-03-29T20:08:27.257Z,97654.41
2023-03-29T20:10:59.604Z,97655.25
2023-03-29T20:13:38.162Z,97649.94
2023-03-29T20:16:11.107Z,97635.97
2023-03-29T20:18:39.684Z,97638.78
2023-03-29T20:21:09.306Z,97636.97
2023-03-29T20:23:38.292Z,97623.84
2023-03-29T20:26:07.090Z,97625.66
2023-03-29T20:28:37.560Z,97626.66
2023-03-29T20:31:10.770Z,97628.31
2023-03-29T20:33:47.211Z,97628.63
2023-03-29T20:36:18.633Z,97623.47
2023-03-29T20:38:47.385Z,97619.00
2023-03-29T20:41:15.684Z,97615.66
2023-03-29T20:43:46.234Z,97606.34
2023-03-29T20:46:18.459Z,97615.81
2023-03-29T20:48:53.991Z,97619.47
2023-03-29T20:51:30.246Z,97612.63
2023-03-29T20:54:03.776Z,97619.94
2023-03-29T20:56:33.928Z,97613.94
2023-03-29T20:59:04.030Z,97608.94
2023-03-29T21:01:32.818Z,97612.59
2023-03-29T21:04:02.747Z,97617.91
2023-03-29T21:06:31.613Z,97613.72
2023-03-29T21:08:59.920Z,97610.25
2023-03-29T21:11:28.630Z,97611.22
2023-03-29T21:13:56.887Z,97607.06
2023-03-29T21:16:29.113Z,97615.19
2023-03-29T21:18:57.637Z,97617.88
2023-03-29T21:21:27.338Z,97619.03
2023-03-29T21:23:55.899Z,97608.72
2023-03-29T21:26:24.156Z,97611.53
2023-03-29T21:28:52.425Z,97603.88
2023-03-29T21:31:21.047Z,97595.22
2023-03-29T21:33:49.376Z,97601.53
2023-03-29T21:36:17.687Z,97597.38
2023-03-29T21:38:47.376Z,97598.34
2023-03-29T21:41:15.917Z,97602.00
2023-03-29T21:43:44.207Z,97602.16
2023-03-29T21:46:13.325Z,97604.97
2023-03-29T21:48:42.516Z,97606.94
2023-03-29T21:51:10.948Z,97622.06
2023-03-29T21:53:39.249Z,97624.03
2023-03-29T21:56:10.078Z,97626.16
2023-03-29T21:58:38.420Z,97614.03
2023-03-29T22:01:09.906Z,97606.38
2023-03-29T22:03:38.761Z,97585.75
2023-03-29T22:06:09.757Z,97584.25
2023-03-29T22:08:39.992Z,97577.41
2023-03-29T22:11:14.408Z,97582.22
2023-03-29T22:13:44.037Z,97576.22
2023-03-29T22:16:16.796Z,97560.44
2023-03-29T22:18:49.195Z,97557.94
2023-03-29T22:21:20.354Z,97546.66
2023-03-29T22:23:51.029Z,97552.13
2023-03-29T22:26:28.195Z,97550.44
2023-03-29T22:28:57.398Z,97543.47
2023-03-29T22:31:28.152Z,97545.44
2023-03-29T22:33:56.878Z,97547.28
2023-03-29T22:36:27.992Z,97550.09
2023-03-29T22:38:56.904Z,97540.09
2023-03-29T22:41:27.698Z,97555.69
2023-03-29T22:43:58.517Z,97554.03
2023-03-29T22:46:27.278Z,97547.06
2023-03-29T22:48:55.704Z,97541.06
2023-03-29T22:51:27.413Z,97569.44
2023-03-29T22:53:55.795Z,97562.59
2023-03-29T22:56:24.844Z,97557.44
2023-03-29T22:58:54.542Z,97545.19
2023-03-29T23:01:25.711Z,97540.88
2023-03-29T23:03:59.718Z,97534.72
2023-03-29T23:06:28.029Z,97520.72
2023-03-29T23:08:56.364Z,97519.91
2023-03-29T23:11:27.464Z,97519.91
2023-03-29T23:13:57.151Z,97527.03
2023-03-29T23:16:25.519Z,97527.03
2023-03-29T23:18:53.828Z,97524.38
2023-03-29T23:21:22.092Z,97517.41
2023-03-29T23:23:55.454Z,97513.75
2023-03-29T23:26:24.127Z,97506.78
2023-03-29T23:28:54.365Z,97514.59
2023-03-29T23:31:27.099Z,97521.88
2023-03-29T23:33:56.193Z,97526.34
2023-03-29T23:36:27.140Z,97518.53
2023-03-29T23:38:55.458Z,97510.72
2023-03-29T23:41:31.046Z,97506.41
2023-03-29T23:43:59.344Z,97513.69
2023-03-29T23:46:32.532Z,97512.88
2023-03-29T23:49:00.878Z,97514.69
2023-03-29T23:51:29.155Z,97498.75
2023-03-29T23:53:57.880Z,97515.69
2023-03-29T23:56:26.133Z,97503.38
2023-03-29T23:58:54.594Z,97505.22
